ENNM

Namsos Høknesøra Airport

Namsos, Norway
METAR ENNM 161020Z 05006KT 9999 BKN016 M06/M07 Q1002
Observed Flight Rules
Dec-16 @ 10:20 UTC (20 hours ago) Marginal Visual Flight Rules
Wind Visibility Clouds
50° at 6 knots 10,000+ meters
  • Broken at 1,600' AGL
Temperatures Readings
Current -6°C / 21°F
Dewpoint -7°C / 19°F
Humidity 93%
Altimeter 29.59" Hg
Pressure 1002 hPa
Elevation 2
METAR ENNM 161020Z 05006KT 9999 BKN016 M06/M07 Q1002
Observed Flight Rules
Dec-16 @ 10:20 UTC
(20 hours ago)
MVFR
Wind Visibility
50° at 6 knots 10,000+ meters
Clouds
  • Broken at 1,600' AGL
Temperature Dewpoint
-6°C / 21°F -7°C / 19°F
Humidity Altimeter Pressure
93% 29.59" Hg 1002 hPa